LBE weather

Arnold Palmer Regional Airport
Latrobe, Pennsylvania, United States

Public forecast

Using degrees Fahrenheit for public forecast. Weather courtesy of forecast.io.

Current aviation weather report (METAR) for Arnold Palmer Regional Airport

Retrieved 2019/12/08 05:35 UTC (0 seconds ago):

KLBE 080535Z AUTO 00000KT 10SM CLR M06/M07 A3036 RMK AO2

Aviation forecast (TAF) for Arnold Palmer Regional Airport

Retrieved 2019-12-08 00:22 UTC (5 hours ago):

TAF KLBE 072320Z 0800/0824 VRB03KT P6SM SKC FM081800 18010G18KT P6SM BKN035 FM082200 18008KT P6SM OVC050